Time;durP1;ratioP1;P1;durP2;ratioP2;P2;SDS_P1;SDS_P2;PMS_P1;PMS_P2;Temp;Humidity;BMP_temperature;BMP_pressure;BME280_temperature;BME280_humidity;BME280_pressure;Samples;Min_cycle;Max_cycle;Signal;HPM_P1;HPM_P2
2021/06/05 00:00:44;;;;;;;34.58;30.50;;;19.80;99.90;;;;;;4810057;29;20038;-83
2021/06/05 00:03:13;;;;;;;31.83;28.47;;;19.70;99.90;;;;;;4810805;29;20410;-85
2021/06/05 00:05:46;;;;;;;33.47;29.80;;;19.70;99.90;;;;;;4799016;29;20066;-85
2021/06/05 00:08:14;;;;;;;31.33;27.63;;;19.70;99.90;;;;;;4797307;29;20405;-86
2021/06/05 00:10:46;;;;;;;34.50;30.98;;;19.70;99.90;;;;;;4804353;29;20047;-85
2021/06/05 00:13:21;;;;;;;33.67;30.23;;;19.70;99.90;;;;;;4804393;29;20058;-84
2021/06/05 00:15:48;;;;;;;29.60;26.33;;;19.70;99.90;;;;;;4786366;29;20039;-86
2021/06/05 00:18:15;;;;;;;31.10;27.90;;;19.70;99.90;;;;;;4812600;29;20049;-87
2021/06/05 00:20:42;;;;;;;34.63;30.95;;;19.70;99.90;;;;;;4798217;29;20074;-85
2021/06/05 00:23:12;;;;;;;35.05;31.33;;;19.70;99.90;;;;;;4776723;29;20030;-86
2021/06/05 00:25:39;;;;;;;38.15;31.50;;;19.70;99.90;;;;;;4805326;29;20051;-87
2021/06/05 00:28:06;;;;;;;38.03;33.88;;;19.70;99.90;;;;;;4787267;29;20047;-91
2021/06/05 00:30:33;;;;;;;33.80;30.25;;;19.70;99.90;;;;;;4786641;29;20051;-90
2021/06/05 00:33:01;;;;;;;37.33;33.30;;;19.70;99.90;;;;;;4772784;29;20034;-91
2021/06/05 00:35:29;;;;;;;36.88;32.97;;;19.70;99.90;;;;;;4775358;29;20046;-93
2021/06/05 00:37:56;;;;;;;46.28;41.30;;;19.70;99.90;;;;;;4776908;29;20053;-92
2021/06/05 00:40:27;;;;;;;41.08;35.58;;;19.60;99.90;;;;;;4792060;29;20039;-92
2021/06/05 00:42:55;;;;;;;48.22;39.70;;;19.60;99.90;;;;;;4800130;29;20031;-92
2021/06/05 00:45:25;;;;;;;45.38;38.15;;;19.60;99.90;;;;;;4792510;29;20047;-95
2021/06/05 00:47:52;;;;;;;41.72;37.30;;;19.50;99.90;;;;;;4796046;29;20035;-92
2021/06/05 00:50:19;;;;;;;50.22;44.92;;;19.40;99.90;;;;;;4807194;29;20050;-91
2021/06/05 00:52:48;;;;;;;47.58;42.45;;;19.40;99.90;;;;;;4773148;29;20053;-85
2021/06/05 00:55:18;;;;;;;42.50;36.20;;;19.30;99.90;;;;;;4790588;29;20051;-87
2021/06/05 00:57:45;;;;;;;77.95;65.88;;;19.30;99.90;;;;;;4792012;29;20577;-87
2021/06/05 01:00:25;;;;;;;62.67;51.70;;;19.20;99.90;;;;;;4775886;29;20042;-89
2021/06/05 01:02:52;;;;;;;53.63;47.83;;;19.20;99.90;;;;;;4786771;29;20047;-88
2021/06/05 01:05:20;;;;;;;48.92;43.42;;;19.20;99.90;;;;;;4777561;29;20062;-89
2021/06/05 01:07:48;;;;;;;50.75;45.25;;;19.20;99.90;;;;;;4781991;29;20047;-87
2021/06/05 01:10:29;;;;;;;51.35;45.92;;;19.20;99.90;;;;;;4785905;29;20042;-87
2021/06/05 01:13:08;;;;;;;46.25;40.35;;;19.20;99.90;;;;;;4779597;29;20042;-87
2021/06/05 01:15:49;;;;;;;47.45;42.58;;;19.20;99.90;;;;;;4778740;29;20053;-86
2021/06/05 01:18:27;;;;;;;47.17;42.20;;;19.20;99.90;;;;;;4793921;29;20042;-86
2021/06/05 01:21:09;;;;;;;50.97;45.13;;;19.20;99.90;;;;;;4788743;29;20046;-87
2021/06/05 01:24:05;;;;;;;45.97;41.08;;;19.10;99.90;;;;;;4784674;29;20074;-86
2021/06/05 01:26:36;;;;;;;49.75;44.45;;;19.00;99.90;;;;;;4782380;29;20065;-86
2021/06/05 01:29:16;;;;;;;45.10;40.00;;;19.00;99.90;;;;;;4793049;29;20042;-85
2021/06/05 01:31:55;;;;;;;51.03;45.58;;;19.00;99.90;;;;;;4785663;29;20057;-84
2021/06/05 01:34:28;;;;;;;48.17;42.90;;;18.90;99.90;;;;;;4806819;29;20043;-84
2021/06/05 01:36:56;;;;;;;57.22;49.22;;;18.90;99.90;;;;;;4773399;29;20039;-84
2021/06/05 01:39:37;;;;;;;59.88;51.90;;;18.80;99.90;;;;;;4780097;29;20538;-83
2021/06/05 01:42:07;;;;;;;62.33;53.03;;;18.70;99.90;;;;;;4809281;29;20034;-87
2021/06/05 01:44:38;;;;;;;61.40;53.90;;;18.70;99.90;;;;;;4777301;29;20045;-83
2021/06/05 01:47:05;;;;;;;66.45;57.10;;;18.70;99.90;;;;;;4805043;29;20096;-84
2021/06/05 01:49:33;;;;;;;66.53;57.15;;;18.60;99.90;;;;;;4778163;29;20051;-86
2021/06/05 01:52:06;;;;;;;92.60;81.28;;;18.60;99.90;;;;;;4794775;29;20050;-86
2021/06/05 01:54:51;;;;;;;85.85;72.43;;;18.50;99.90;;;;;;4792745;29;20046;-85
2021/06/05 01:57:24;;;;;;;80.60;65.88;;;18.50;99.90;;;;;;4805691;29;20046;-87
2021/06/05 01:59:58;;;;;;;76.93;63.58;;;18.40;99.90;;;;;;4783693;29;20043;-86
2021/06/05 02:02:38;;;;;;;72.68;59.78;;;18.40;99.90;;;;;;4784280;29;20050;-85
2021/06/05 02:05:08;;;;;;;76.22;61.42;;;18.30;99.90;;;;;;4782548;29;20047;-86
2021/06/05 02:07:36;;;;;;;80.25;62.92;;;18.30;99.90;;;;;;4786130;29;20047;-85
2021/06/05 02:10:09;;;;;;;76.05;60.40;;;18.30;99.90;;;;;;4784886;29;20043;-84
2021/06/05 02:12:36;;;;;;;93.20;68.93;;;18.20;99.90;;;;;;4803582;29;20039;-85
2021/06/05 02:15:26;;;;;;;85.40;67.30;;;18.10;99.90;;;;;;4783961;29;20495;-86
2021/06/05 02:18:00;;;;;;;89.93;69.20;;;18.10;99.90;;;;;;4781165;29;20054;-86
2021/06/05 02:20:33;;;;;;;105.97;83.50;;;18.00;99.90;;;;;;4784689;29;20043;-86
2021/06/05 02:23:13;;;;;;;102.07;78.28;;;18.00;99.90;;;;;;4782586;29;20035;-86
2021/06/05 02:25:40;;;;;;;117.32;91.18;;;17.90;99.90;;;;;;4802090;29;20460;-86
2021/06/05 02:28:09;;;;;;;105.88;80.80;;;18.00;99.90;;;;;;4786414;29;20062;-87
2021/06/05 02:30:38;;;;;;;102.68;77.05;;;18.00;99.90;;;;;;4791967;29;20059;-86
2021/06/05 02:33:07;;;;;;;102.00;71.97;;;18.00;99.90;;;;;;4787251;29;20046;-86
2021/06/05 02:35:41;;;;;;;96.65;72.93;;;18.00;99.90;;;;;;4758315;29;20039;-86
2021/06/05 02:38:29;;;;;;;97.70;71.82;;;18.10;99.90;;;;;;4777510;29;20047;-87
2021/06/05 02:41:01;;;;;;;100.90;73.23;;;18.10;99.90;;;;;;4787323;29;20065;-86
2021/06/05 02:43:31;;;;;;;104.97;77.32;;;18.10;99.90;;;;;;4787813;29;20307;-86
2021/06/05 02:46:15;;;;;;;107.75;76.97;;;18.10;99.90;;;;;;4803417;29;20062;-86
2021/06/05 02:48:57;;;;;;;98.90;75.88;;;18.10;99.90;;;;;;4801138;29;20109;-87
2021/06/05 02:51:45;;;;;;;100.32;74.53;;;18.10;99.90;;;;;;4800328;29;20041;-86
2021/06/05 02:54:24;;;;;;;108.85;78.60;;;18.10;99.90;;;;;;4792042;29;20054;-87
2021/06/05 02:56:53;;;;;;;110.32;77.93;;;18.00;99.90;;;;;;4791180;29;20048;-85
2021/06/05 02:59:21;;;;;;;104.45;77.15;;;17.90;99.90;;;;;;4787385;29;20050;-87
2021/06/05 03:01:52;;;;;;;117.40;84.45;;;17.90;99.90;;;;;;4769708;29;20050;-85
2021/06/05 03:04:20;;;;;;;117.40;83.70;;;17.90;99.90;;;;;;4782549;29;20043;-85
2021/06/05 03:06:47;;;;;;;117.38;82.47;;;17.80;99.90;;;;;;4789353;29;20054;-86
2021/06/05 03:09:18;;;;;;;117.95;82.50;;;17.70;99.90;;;;;;4805033;29;20515;-82
2021/06/05 03:11:49;;;;;;;111.53;75.72;;;17.60;99.90;;;;;;4761812;29;20046;-83
2021/06/05 03:14:17;;;;;;;133.90;87.05;;;17.60;99.90;;;;;;4774274;29;20030;-84
2021/06/05 03:16:46;;;;;;;125.00;78.93;;;17.60;99.90;;;;;;4796406;29;20058;-83
2021/06/05 03:19:14;;;;;;;139.32;90.47;;;17.50;99.90;;;;;;4781097;29;20046;-84
2021/06/05 03:21:43;;;;;;;122.80;79.05;;;17.40;99.90;;;;;;4793692;29;20042;-83
2021/06/05 03:24:23;;;;;;;127.75;82.10;;;17.40;99.90;;;;;;4795882;29;20058;-84
2021/06/05 03:26:52;;;;;;;129.70;81.45;;;17.40;99.90;;;;;;4801047;29;20054;-84
2021/06/05 03:29:20;;;;;;;129.85;79.75;;;17.40;99.90;;;;;;4766187;29;20054;-85
2021/06/05 03:31:55;;;;;;;134.75;85.63;;;17.40;99.90;;;;;;4783485;29;20486;-84
2021/06/05 03:34:24;;;;;;;139.02;84.32;;;17.30;99.90;;;;;;4793431;29;20035;-85
2021/06/05 03:36:51;;;;;;;131.60;79.13;;;17.30;99.90;;;;;;4761600;29;20050;-85
2021/06/05 03:39:21;;;;;;;127.68;79.45;;;17.30;99.90;;;;;;4808411;29;20055;-84
2021/06/05 03:41:48;;;;;;;143.20;86.70;;;17.30;99.90;;;;;;4785129;29;20050;-84
2021/06/05 03:44:17;;;;;;;143.07;84.78;;;17.40;99.90;;;;;;4769350;29;20051;-83
2021/06/05 03:46:45;;;;;;;148.10;86.55;;;17.40;99.90;;;;;;4776581;29;20064;-85
2021/06/05 03:49:12;;;;;;;141.25;81.50;;;17.40;99.90;;;;;;4770809;29;20061;-83
2021/06/05 03:51:39;;;;;;;147.38;86.55;;;17.30;99.90;;;;;;4797816;29;20422;-82
2021/06/05 03:54:09;;;;;;;149.43;82.35;;;17.30;99.90;;;;;;4787522;29;20467;-84
2021/06/05 03:56:35;;;;;;;145.98;82.65;;;17.40;99.90;;;;;;4815453;29;20050;-83
2021/06/05 03:59:03;;;;;;;143.55;80.90;;;17.40;99.90;;;;;;4763114;29;20051;-83
2021/06/05 04:01:31;;;;;;;151.25;85.07;;;17.40;99.90;;;;;;4807603;29;20616;-83
2021/06/05 04:03:58;;;;;;;152.45;85.82;;;17.40;99.90;;;;;;4813735;29;20061;-84
2021/06/05 04:06:29;;;;;;;151.85;84.30;;;17.40;99.90;;;;;;4787702;29;20063;-83
2021/06/05 04:08:58;;;;;;;136.15;75.30;;;17.40;99.90;;;;;;4801579;29;20046;-84
2021/06/05 04:11:28;;;;;;;157.68;85.13;;;17.50;99.90;;;;;;4807520;29;20047;-82
2021/06/05 04:13:55;;;;;;;151.73;80.70;;;17.50;99.90;;;;;;4799479;29;20043;-83
2021/06/05 04:16:23;;;;;;;150.57;81.53;;;17.50;99.90;;;;;;4765149;29;20039;-83
2021/06/05 04:18:49;;;;;;;150.63;83.75;;;17.50;99.90;;;;;;4806195;29;20054;-83
2021/06/05 04:21:19;;;;;;;159.57;89.03;;;17.50;99.90;;;;;;4771788;29;20455;-83
2021/06/05 04:23:47;;;;;;;151.15;85.72;;;17.60;99.90;;;;;;4801255;29;20071;-83
2021/06/05 04:26:14;;;;;;;156.05;86.15;;;17.60;99.90;;;;;;4790125;29;20405;-83
2021/06/05 04:28:41;;;;;;;141.90;80.40;;;17.60;99.90;;;;;;4793382;29;20047;-83
2021/06/05 04:31:09;;;;;;;127.10;71.43;;;17.60;99.90;;;;;;4792223;29;20419;-83
2021/06/05 04:33:36;;;;;;;149.95;82.90;;;17.70;99.90;;;;;;4807273;29;20085;-83
2021/06/05 04:36:08;;;;;;;148.38;83.82;;;17.70;99.90;;;;;;4778453;29;20049;-83
2021/06/05 04:38:36;;;;;;;128.00;72.25;;;17.60;99.90;;;;;;4796115;29;20077;-82
2021/06/05 04:41:09;;;;;;;133.63;73.85;;;17.60;99.90;;;;;;4811318;29;20050;-82
2021/06/05 04:43:38;;;;;;;121.47;70.55;;;17.70;99.90;;;;;;4805897;29;20046;-82
2021/06/05 04:46:06;;;;;;;126.72;72.68;;;17.70;99.90;;;;;;4781803;29;20046;-81
2021/06/05 04:48:32;;;;;;;113.68;68.50;;;17.70;99.90;;;;;;4807707;29;20026;-83
2021/06/05 04:50:59;;;;;;;121.60;71.32;;;17.70;99.90;;;;;;4771986;29;20038;-83
2021/06/05 04:53:26;;;;;;;106.45;60.08;;;17.80;99.90;;;;;;4791061;29;20059;-82
2021/06/05 04:55:53;;;;;;;123.82;73.95;;;17.80;99.90;;;;;;4798314;29;20035;-82
2021/06/05 04:58:21;;;;;;;115.97;69.28;;;17.90;99.90;;;;;;4795078;29;20046;-83
2021/06/05 05:00:50;;;;;;;120.88;69.93;;;17.90;99.90;;;;;;4808371;29;20063;-82
2021/06/05 05:03:20;;;;;;;107.68;63.80;;;18.00;99.90;;;;;;4793309;29;20038;-82
2021/06/05 05:05:47;;;;;;;105.43;62.50;;;18.00;99.90;;;;;;4793206;29;20065;-81
2021/06/05 05:08:16;;;;;;;117.50;69.90;;;18.10;99.90;;;;;;4791933;29;20042;-81
2021/06/05 05:10:46;;;;;;;101.32;59.88;;;18.10;99.90;;;;;;4813528;29;20057;-81
2021/06/05 05:13:17;;;;;;;96.50;59.03;;;18.10;99.90;;;;;;4796003;29;20042;-81
2021/06/05 05:15:44;;;;;;;91.60;52.85;;;18.10;99.90;;;;;;4809869;29;20051;-81
2021/06/05 05:18:11;;;;;;;92.38;52.80;;;18.20;99.90;;;;;;4804532;29;20073;-81
2021/06/05 05:20:39;;;;;;;93.25;56.38;;;18.20;99.90;;;;;;4779511;29;20821;-81
2021/06/05 05:23:10;;;;;;;94.25;55.70;;;18.20;99.90;;;;;;4805413;29;20414;-81
2021/06/05 05:25:38;;;;;;;91.13;54.75;;;18.20;99.90;;;;;;4811876;29;20065;-81
2021/06/05 05:28:06;;;;;;;93.75;57.13;;;18.20;99.90;;;;;;4791967;29;20042;-81
2021/06/05 05:30:38;;;;;;;97.72;57.15;;;18.20;99.90;;;;;;4791121;29;20055;-81
2021/06/05 05:33:06;;;;;;;93.63;54.95;;;18.20;99.90;;;;;;4788172;29;20043;-82
2021/06/05 05:35:34;;;;;;;101.95;61.13;;;18.20;99.90;;;;;;4795162;29;20035;-81
2021/06/05 05:38:03;;;;;;;98.22;56.58;;;18.20;99.90;;;;;;4812597;29;20051;-81
2021/06/05 05:40:31;;;;;;;93.70;54.67;;;18.20;99.90;;;;;;4780620;29;20042;-82
2021/06/05 05:42:57;;;;;;;89.10;53.40;;;18.20;99.90;;;;;;4789274;29;20050;-81
2021/06/05 05:45:24;;;;;;;87.97;54.38;;;18.30;99.90;;;;;;4807490;29;20053;-82
2021/06/05 05:47:56;;;;;;;80.82;48.13;;;18.30;99.90;;;;;;4781483;29;20049;-82
2021/06/05 05:50:23;;;;;;;84.20;51.22;;;18.40;99.90;;;;;;4806676;29;20419;-81
2021/06/05 05:52:50;;;;;;;84.18;49.85;;;18.30;99.90;;;;;;4792985;29;20058;-81
2021/06/05 05:55:17;;;;;;;75.00;45.75;;;18.40;99.90;;;;;;4773993;29;20043;-81
2021/06/05 05:57:46;;;;;;;77.10;45.67;;;18.40;99.90;;;;;;4807051;29;20411;-82
2021/06/05 06:00:17;;;;;;;70.63;44.65;;;18.50;99.90;;;;;;4789514;29;20061;-83
2021/06/05 06:02:45;;;;;;;77.28;46.90;;;18.50;99.90;;;;;;4806603;29;20506;-83
2021/06/05 06:05:13;;;;;;;70.07;43.42;;;18.60;99.90;;;;;;4790307;29;20417;-83
2021/06/05 06:07:40;;;;;;;63.08;39.40;;;18.70;99.90;;;;;;4780905;29;20047;-83
2021/06/05 06:10:09;;;;;;;66.68;41.75;;;18.80;99.90;;;;;;4777100;29;20063;-83
2021/06/05 06:12:37;;;;;;;68.75;44.30;;;18.90;99.90;;;;;;4796068;29;20043;-83
2021/06/05 06:15:09;;;;;;;69.85;43.58;;;19.00;99.90;;;;;;4781369;29;20034;-83
2021/06/05 06:17:36;;;;;;;69.15;42.80;;;19.00;99.90;;;;;;4811692;29;20039;-83
2021/06/05 06:20:05;;;;;;;69.95;44.50;;;19.00;99.90;;;;;;4791738;29;20055;-83
2021/06/05 06:22:32;;;;;;;71.97;45.25;;;19.10;99.90;;;;;;4776076;29;20074;-83
2021/06/05 06:24:59;;;;;;;71.03;44.33;;;19.10;99.90;;;;;;4780213;29;20046;-84
2021/06/05 06:27:25;;;;;;;71.20;43.22;;;19.10;99.90;;;;;;4804894;29;20419;-83
2021/06/05 06:29:52;;;;;;;67.70;42.53;;;19.20;99.90;;;;;;4790672;29;20035;-84
2021/06/05 06:32:18;;;;;;;56.03;36.65;;;19.20;99.90;;;;;;4790530;29;20396;-83
2021/06/05 06:34:45;;;;;;;51.92;33.80;;;19.30;99.90;;;;;;4788535;29;20062;-83
2021/06/05 06:37:11;;;;;;;53.25;35.17;;;19.30;99.90;;;;;;4792893;29;20050;-84
2021/06/05 06:39:38;;;;;;;53.50;36.08;;;19.30;99.90;;;;;;4787478;29;20058;-84
2021/06/05 06:42:05;;;;;;;48.60;31.50;;;19.40;99.90;;;;;;4775482;29;20065;-85
2021/06/05 06:44:31;;;;;;;47.10;31.60;;;19.40;99.90;;;;;;4774745;29;20055;-84
2021/06/05 06:46:58;;;;;;;47.00;30.88;;;19.50;99.90;;;;;;4777159;29;20829;-84
2021/06/05 06:49:25;;;;;;;45.55;30.05;;;19.50;99.90;;;;;;4802992;29;20402;-83
2021/06/05 06:51:52;;;;;;;38.33;25.38;;;19.60;99.90;;;;;;4773158;29;20054;-86
2021/06/05 06:54:18;;;;;;;43.92;29.85;;;19.60;99.90;;;;;;4776430;29;20471;-83
2021/06/05 06:56:45;;;;;;;43.85;29.17;;;19.60;99.90;;;;;;4793303;29;20049;-84
2021/06/05 06:59:12;;;;;;;41.53;27.30;;;19.50;99.90;;;;;;4763979;29;20050;-84
2021/06/05 07:01:39;;;;;;;43.20;28.90;;;19.50;99.90;;;;;;4803597;29;20520;-84
2021/06/05 07:04:06;;;;;;;42.75;26.05;;;19.50;99.90;;;;;;4773439;29;20058;-84
2021/06/05 07:06:34;;;;;;;40.22;26.75;;;19.50;99.90;;;;;;4789256;29;20046;-84
2021/06/05 07:09:00;;;;;;;35.33;24.75;;;19.60;99.90;;;;;;4802648;29;20046;-84
2021/06/05 07:11:33;;;;;;;39.85;26.30;;;19.60;99.90;;;;;;4772274;29;20058;-84
2021/06/05 07:14:02;;;;;;;38.05;26.65;;;19.60;99.90;;;;;;4787052;29;20047;-84
2021/06/05 07:16:30;;;;;;;37.85;26.60;;;19.60;99.90;;;;;;4808567;29;20158;-84
2021/06/05 07:18:57;;;;;;;33.90;23.75;;;19.60;99.90;;;;;;4787306;29;20046;-84
2021/06/05 07:21:24;;;;;;;34.42;23.38;;;19.60;99.90;;;;;;4758708;29;20070;-85
2021/06/05 07:23:51;;;;;;;37.33;25.80;;;19.70;99.90;;;;;;4772793;29;20038;-84
2021/06/05 07:26:22;;;;;;;33.50;24.52;;;19.70;99.90;;;;;;4776476;29;20398;-84
2021/06/05 07:28:52;;;;;;;33.30;24.23;;;19.70;99.90;;;;;;4794722;29;20043;-84
2021/06/05 07:31:27;;;;;;;31.52;22.10;;;19.70;99.90;;;;;;4794483;29;20054;-84
2021/06/05 07:33:54;;;;;;;32.35;23.33;;;19.70;99.90;;;;;;4793555;29;20043;-84
2021/06/05 07:36:26;;;;;;;32.38;22.05;;;19.70;99.90;;;;;;4783324;29;20053;-84
2021/06/05 07:38:53;;;;;;;32.22;22.15;;;19.80;99.90;;;;;;4783122;29;20060;-84
2021/06/05 07:41:20;;;;;;;30.38;22.88;;;19.90;99.90;;;;;;4782372;29;20046;-84
2021/06/05 07:43:47;;;;;;;30.02;22.08;;;19.90;99.90;;;;;;4782163;29;20062;-83
2021/06/05 07:46:14;;;;;;;28.02;20.48;;;19.90;99.90;;;;;;4791697;29;20049;-84
2021/06/05 07:48:41;;;;;;;29.17;20.88;;;20.00;99.90;;;;;;4793018;29;20042;-84
2021/06/05 07:51:09;;;;;;;28.20;20.55;;;19.90;99.90;;;;;;4807792;29;20057;-84
2021/06/05 07:53:36;;;;;;;26.95;19.88;;;20.00;99.90;;;;;;4787860;29;20046;-84
2021/06/05 07:56:03;;;;;;;25.40;19.23;;;19.90;99.90;;;;;;4774505;29;20034;-82
2021/06/05 07:58:30;;;;;;;25.05;18.35;;;19.90;99.90;;;;;;4775376;29;20057;-80
2021/06/05 08:00:56;;;;;;;25.45;19.05;;;19.90;99.90;;;;;;4791558;29;20399;-85
2021/06/05 08:03:23;;;;;;;22.33;17.73;;;19.90;99.90;;;;;;4808893;29;20062;-86
2021/06/05 08:05:50;;;;;;;21.85;17.90;;;19.90;99.90;;;;;;4805407;29;20051;-85
2021/06/05 08:08:17;;;;;;;23.00;18.08;;;19.90;99.90;;;;;;4776451;29;20059;-84
2021/06/05 08:10:51;;;;;;;19.75;15.98;;;20.00;99.90;;;;;;4801394;29;20054;-85
2021/06/05 08:13:19;;;;;;;23.23;17.63;;;19.90;99.90;;;;;;4790051;29;20043;-86
2021/06/05 08:15:49;;;;;;;23.63;19.10;;;20.00;99.90;;;;;;4808928;29;20062;-86
2021/06/05 08:18:16;;;;;;;23.13;18.38;;;19.90;99.90;;;;;;4792477;29;20057;-85
2021/06/05 08:20:46;;;;;;;20.52;16.73;;;19.80;99.90;;;;;;4805231;29;20046;-85
2021/06/05 08:23:13;;;;;;;21.30;17.10;;;19.70;99.90;;;;;;4797495;29;20047;-86
2021/06/05 08:25:39;;;;;;;23.52;17.48;;;19.70;99.90;;;;;;4791567;29;20055;-81
2021/06/05 08:28:08;;;;;;;21.13;17.10;;;19.60;99.90;;;;;;4806410;29;20771;-84
2021/06/05 08:30:47;;;;;;;20.30;16.80;;;19.60;99.90;;;;;;4810380;29;20397;-82
2021/06/05 08:33:14;;;;;;;20.42;15.20;;;19.60;99.90;;;;;;4811873;29;20073;-84
2021/06/05 08:35:42;;;;;;;22.08;18.08;;;19.60;99.90;;;;;;4792023;29;20035;-83
2021/06/05 08:38:11;;;;;;;19.83;15.45;;;19.60;99.90;;;;;;4806493;29;20410;-83
2021/06/05 08:40:54;;;;;;;19.60;15.40;;;19.60;99.90;;;;;;4795529;29;20051;-84
2021/06/05 08:43:55;;;;;;;17.95;14.98;;;19.60;99.90;;;;;;4802997;29;20047;-84
2021/06/05 08:46:28;;;;;;;17.35;14.50;;;19.60;99.90;;;;;;4785550;29;20047;-83
2021/06/05 08:48:58;;;;;;;23.27;18.00;;;19.60;99.90;;;;;;4784152;29;20490;-84
2021/06/05 08:51:49;;;;;;;16.27;13.55;;;19.60;99.90;;;;;;4802012;29;20043;-83
2021/06/05 08:54:30;;;;;;;16.25;13.88;;;19.60;99.90;;;;;;4811582;29;20034;-83
2021/06/05 08:57:14;;;;;;;15.37;12.90;;;19.60;99.90;;;;;;4805069;29;20042;-84
2021/06/05 08:59:43;;;;;;;17.90;13.40;;;19.60;99.90;;;;;;4783511;29;20042;-84
2021/06/05 09:02:11;;;;;;;17.67;14.93;;;19.60;99.90;;;;;;4800160;29;20503;-84
2021/06/05 09:04:38;;;;;;;14.38;11.07;;;19.70;99.90;;;;;;4810435;29;20045;-84
2021/06/05 09:07:09;;;;;;;14.38;12.73;;;19.80;99.90;;;;;;4805464;29;20027;-84
2021/06/05 09:09:40;;;;;;;13.25;11.40;;;20.10;99.90;;;;;;4808442;29;20509;-84
2021/06/05 09:12:08;;;;;;;12.60;10.32;;;20.40;99.90;;;;;;4808519;29;20042;-84
2021/06/05 09:14:36;;;;;;;13.07;11.18;;;20.70;99.90;;;;;;4780772;29;20039;-85
2021/06/05 09:17:30;;;;;;;18.85;17.00;;;20.90;99.90;;;;;;4807110;29;20042;-82
2021/06/05 09:20:02;;;;;;;32.38;29.23;;;21.10;99.90;;;;;;4795170;29;20097;-84
2021/06/05 09:22:40;;;;;;;20.17;18.10;;;21.20;99.90;;;;;;4786203;29;20788;-84
2021/06/05 09:25:21;;;;;;;12.10;10.93;;;21.20;99.90;;;;;;4802269;29;20078;-84
2021/06/05 09:27:48;;;;;;;14.88;13.23;;;21.10;99.90;;;;;;4805324;29;20047;-85
2021/06/05 09:30:34;;;;;;;27.52;24.90;;;21.00;99.90;;;;;;4779594;29;20418;-84
2021/06/05 09:33:03;;;;;;;14.52;13.00;;;20.90;99.90;;;;;;4807934;29;20057;-84
2021/06/05 09:35:43;;;;;;;11.30;10.20;;;20.80;99.90;;;;;;4805846;29;20050;-84
2021/06/05 09:38:25;;;;;;;10.63;9.63;;;20.70;99.90;;;;;;4804188;29;20034;-85
2021/06/05 09:41:04;;;;;;;13.10;11.85;;;20.60;99.90;;;;;;4807881;29;20053;-84
2021/06/05 09:43:31;;;;;;;17.90;16.08;;;20.50;99.90;;;;;;4801617;29;20050;-84
2021/06/05 09:46:21;;;;;;;17.88;15.85;;;20.40;99.90;;;;;;4793059;29;20482;-84
2021/06/05 09:48:51;;;;;;;12.18;10.98;;;20.30;99.90;;;;;;4805823;29;20045;-84
2021/06/05 09:51:39;;;;;;;12.73;10.00;;;20.40;99.90;;;;;;4807902;29;20042;-84
2021/06/05 09:54:12;;;;;;;9.55;8.18;;;20.60;99.90;;;;;;4790266;29;20045;-83
2021/06/05 09:56:44;;;;;;;9.93;8.23;;;20.80;99.90;;;;;;4804056;29;20054;-82
2021/06/05 09:59:26;;;;;;;;;;;21.10;99.90;;;;;;4809477;29;20505;-83
2021/06/05 10:02:06;;;;;;;9.70;8.70;;;21.10;99.90;;;;;;4808400;29;19920;-83
2021/06/05 10:04:35;;;;;;;9.73;8.55;;;21.10;99.90;;;;;;4805909;29;20319;-83
2021/06/05 10:07:20;;;;;;;14.57;13.10;;;21.10;99.90;;;;;;4804481;29;20042;-81
2021/06/05 10:09:47;;;;;;;16.08;13.05;;;21.20;99.90;;;;;;4805470;29;20050;-83
2021/06/05 10:12:19;;;;;;;13.25;11.95;;;21.20;99.90;;;;;;4808649;29;21359;-83
2021/06/05 10:14:52;;;;;;;17.13;15.35;;;21.10;99.90;;;;;;4803631;29;20573;-84
2021/06/05 10:17:40;;;;;;;10.40;9.43;;;21.20;99.90;;;;;;4792099;29;20050;-82
2021/06/05 10:20:36;;;;;;;11.90;10.75;;;21.20;99.90;;;;;;4812827;29;20930;-82
2021/06/05 10:23:03;;;;;;;9.98;9.05;;;21.30;99.90;;;;;;4790867;29;20046;-83
2021/06/05 10:25:41;;;;;;;12.15;10.48;;;21.20;99.80;;;;;;4808634;29;20058;-83
2021/06/05 10:28:12;;;;;;;33.97;30.38;;;21.20;99.90;;;;;;4808684;29;20545;-83
2021/06/05 10:31:00;;;;;;;12.77;11.55;;;21.10;99.60;;;;;;4806304;29;20038;-84
2021/06/05 10:33:47;;;;;;;8.65;7.85;;;21.00;99.40;;;;;;4786406;29;20391;-82
2021/06/05 10:36:22;;;;;;;9.07;7.65;;;20.90;99.60;;;;;;4803683;29;20035;-83
2021/06/05 10:38:51;;;;;;;10.60;9.30;;;20.90;99.80;;;;;;4815862;29;20046;-83
2021/06/05 10:41:24;;;;;;;9.23;8.38;;;20.90;99.90;;;;;;4784443;29;21411;-80
2021/06/05 10:43:53;;;;;;;9.13;7.85;;;21.00;99.80;;;;;;4810329;29;20054;-82
2021/06/05 10:46:29;;;;;;;9.90;8.55;;;21.20;99.60;;;;;;4801672;29;20058;-83
2021/06/05 10:49:34;;;;;;;8.05;7.32;;;21.40;99.00;;;;;;4802060;29;20053;-81
2021/06/05 10:52:07;;;;;;;5.18;4.28;;;21.50;99.00;;;;;;4777809;29;20514;-81
2021/06/05 10:54:43;;;;;;;8.82;7.93;;;21.50;98.90;;;;;;4806592;29;20035;-82
2021/06/05 10:57:34;;;;;;;8.18;7.28;;;21.50;98.80;;;;;;4789637;29;20042;-82
2021/06/05 11:00:24;;;;;;;5.75;5.15;;;21.40;98.90;;;;;;4800377;29;20061;-82
2021/06/05 11:02:56;;;;;;;8.98;7.20;;;21.50;99.00;;;;;;4804439;29;20047;-83
2021/06/05 11:05:33;;;;;;;11.82;7.70;;;21.50;98.90;;;;;;4793784;29;20050;-82
2021/06/05 11:08:09;;;;;;;6.57;6.00;;;21.50;98.90;;;;;;4812287;29;20061;-82
2021/06/05 11:10:43;;;;;;;6.75;6.13;;;21.50;98.60;;;;;;4792782;29;20046;-83
2021/06/05 11:13:10;;;;;;;7.78;6.38;;;21.30;98.50;;;;;;4806497;29;20042;-83
2021/06/05 11:15:58;;;;;;;9.15;7.88;;;21.20;98.60;;;;;;4793913;29;20059;-82
2021/06/05 11:18:36;;;;;;;8.18;7.30;;;21.10;98.40;;;;;;4812068;29;20042;-83
2021/06/05 11:21:21;;;;;;;8.77;7.03;;;20.90;98.70;;;;;;4802157;29;20047;-83
2021/06/05 11:23:56;;;;;;;9.45;8.20;;;20.90;98.90;;;;;;4800502;29;20062;-83
2021/06/05 11:26:38;;;;;;;11.18;9.88;;;20.70;98.90;;;;;;4784755;29;20034;-82
2021/06/05 11:29:20;;;;;;;10.00;8.82;;;20.70;99.10;;;;;;4797998;29;20047;-83
2021/06/05 11:31:47;;;;;;;8.90;8.05;;;20.70;99.20;;;;;;4800945;29;20089;-83
2021/06/05 11:34:28;;;;;;;9.85;8.85;;;20.70;99.40;;;;;;4804495;29;20046;-82
2021/06/05 11:37:13;;;;;;;9.07;8.27;;;20.80;99.20;;;;;;4806047;29;20050;-84
2021/06/05 11:40:04;;;;;;;10.73;9.65;;;20.90;99.10;;;;;;4804318;29;20042;-82
2021/06/05 11:42:30;;;;;;;10.15;9.25;;;21.10;98.90;;;;;;4805500;29;20054;-82
2021/06/05 11:44:57;;;;;;;10.63;9.63;;;21.20;98.70;;;;;;4802897;29;20047;-82
2021/06/05 11:47:23;;;;;;;11.45;10.32;;;21.30;98.70;;;;;;4783699;29;20042;-81
2021/06/05 11:50:09;;;;;;;10.43;9.48;;;21.40;98.50;;;;;;4809537;29;20038;-81
2021/06/05 11:52:55;;;;;;;9.18;8.38;;;21.50;98.10;;;;;;4790939;29;20061;-81
2021/06/05 11:55:36;;;;;;;8.98;8.18;;;21.70;97.80;;;;;;4789003;29;20043;-83
2021/06/05 11:58:11;;;;;;;9.13;8.23;;;21.80;97.80;;;;;;4810872;29;20042;-82
2021/06/05 12:00:49;;;;;;;10.00;9.10;;;21.80;97.70;;;;;;4793270;29;20054;-83
2021/06/05 12:03:38;;;;;;;9.77;8.82;;;21.90;97.60;;;;;;4806694;29;20065;-83
2021/06/05 12:06:16;;;;;;;9.88;8.88;;;21.90;97.70;;;;;;4792806;29;20042;-83
2021/06/05 12:08:44;;;;;;;9.05;7.88;;;21.80;97.30;;;;;;4803182;29;20394;-83
2021/06/05 12:11:21;;;;;;;8.90;8.20;;;21.70;97.30;;;;;;4793403;29;20047;-83
2021/06/05 12:13:48;;;;;;;9.35;8.52;;;21.60;97.50;;;;;;4804718;29;20062;-84
2021/06/05 12:16:15;;;;;;;9.60;8.80;;;21.50;97.60;;;;;;4794525;29;20509;-83
2021/06/05 12:18:46;;;;;;;9.75;8.68;;;21.30;97.60;;;;;;4810507;29;20054;-83
2021/06/05 12:21:39;;;;;;;9.77;8.87;;;21.30;97.50;;;;;;4779666;29;20057;-84
2021/06/05 12:24:32;;;;;;;7.28;6.68;;;21.30;97.70;;;;;;4813291;29;20287;-83
2021/06/05 12:27:02;;;;;;;9.35;8.30;;;21.40;97.70;;;;;;4790922;29;20059;-83
2021/06/05 12:29:31;;;;;;;8.70;8.00;;;21.40;97.70;;;;;;4808380;29;20046;-82
2021/06/05 12:32:17;;;;;;;9.23;8.40;;;21.50;97.70;;;;;;4806818;29;20518;-83
2021/06/05 12:34:45;;;;;;;10.43;9.40;;;21.60;97.50;;;;;;4813290;29;20046;-83
2021/06/05 12:37:17;;;;;;;8.88;7.97;;;21.70;97.40;;;;;;4806816;29;20045;-83
2021/06/05 12:39:51;;;;;;;7.90;7.20;;;21.70;97.20;;;;;;4813417;29;20046;-83
2021/06/05 12:42:33;;;;;;;7.13;6.53;;;21.70;97.10;;;;;;4795885;29;20042;-82
2021/06/05 12:45:18;;;;;;;9.25;8.35;;;21.70;97.00;;;;;;4793311;29;20785;-83
2021/06/05 12:47:50;;;;;;;10.13;9.23;;;21.60;97.00;;;;;;4790043;29;20529;-83
2021/06/05 12:50:19;;;;;;;7.43;6.87;;;21.50;96.90;;;;;;4811520;29;20043;-83
2021/06/05 12:52:47;;;;;;;10.95;10.00;;;21.30;97.10;;;;;;4804927;29;20043;-82